createdAt,value
2022-08-04T00:00:20.092Z,65.30
2022-08-04T00:03:19.265Z,65.10
2022-08-04T00:06:12.032Z,65.20
2022-08-04T00:08:53.127Z,66.30
2022-08-04T00:11:26.106Z,66.70
2022-08-04T00:14:10.846Z,66.70
2022-08-04T00:16:40.955Z,67.10
2022-08-04T00:19:17.973Z,66.40
2022-08-04T00:21:59.821Z,66.70
2022-08-04T00:24:33.831Z,66.10
2022-08-04T00:27:00.634Z,66.30
2022-08-04T00:29:27.746Z,66.70
2022-08-04T00:31:57.929Z,67.00
2022-08-04T00:34:29.581Z,67.10
2022-08-04T00:36:57.639Z,67.30
2022-08-04T00:39:25.697Z,67.50
2022-08-04T00:42:18.738Z,67.70
2022-08-04T00:45:26.692Z,68.30
2022-08-04T00:48:18.102Z,67.60
2022-08-04T00:51:11.724Z,67.70
2022-08-04T00:53:54.020Z,67.70
2022-08-04T00:57:04.104Z,67.50
2022-08-04T00:59:36.398Z,67.00
2022-08-04T01:02:21.702Z,67.10
2022-08-04T01:05:25.345Z,66.80
2022-08-04T01:08:34.768Z,66.90
2022-08-04T01:11:16.145Z,67.30
2022-08-04T01:13:58.156Z,67.40
2022-08-04T01:16:31.445Z,67.60
2022-08-04T01:19:14.380Z,66.80
2022-08-04T01:22:15.153Z,67.20
2022-08-04T01:24:57.258Z,66.20
2022-08-04T01:28:03.497Z,66.10
2022-08-04T01:30:36.101Z,66.30
2022-08-04T01:33:05.076Z,66.20
2022-08-04T01:35:47.949Z,66.60
2022-08-04T01:38:18.278Z,66.70
2022-08-04T01:40:53.003Z,66.70
2022-08-04T01:43:21.179Z,66.50
2022-08-04T01:45:58.443Z,66.90
2022-08-04T01:48:46.281Z,66.70
2022-08-04T01:51:13.359Z,66.90
2022-08-04T01:53:42.475Z,66.60
2022-08-04T01:56:12.185Z,66.50
2022-08-04T01:58:40.353Z,66.70
2022-08-04T02:01:10.014Z,67.00
2022-08-04T02:04:18.813Z,67.10
2022-08-04T02:07:02.496Z,67.20
2022-08-04T02:09:54.307Z,67.50
2022-08-04T02:12:31.905Z,67.90
2022-08-04T02:19:25.112Z,68.60
2022-08-04T02:21:58.183Z,68.20
2022-08-04T02:24:28.994Z,68.80
2022-08-04T02:26:57.796Z,69.10
2022-08-04T02:29:49.974Z,69.00
2022-08-04T02:32:28.945Z,69.10
2022-08-04T02:35:14.589Z,69.00
2022-08-04T02:37:47.781Z,69.30
2022-08-04T02:40:20.854Z,69.10
2022-08-04T02:42:48.099Z,68.80
2022-08-04T02:45:19.739Z,68.70
2022-08-04T02:48:08.115Z,68.60
2022-08-04T02:50:35.855Z,68.40
2022-08-04T02:53:04.556Z,68.50
2022-08-04T02:55:38.348Z,68.70
2022-08-04T02:58:06.426Z,68.70
2022-08-04T03:00:33.279Z,68.70
2022-08-04T03:03:24.601Z,68.80
2022-08-04T03:06:11.339Z,69.20
2022-08-04T03:09:06.493Z,69.60
2022-08-04T03:11:48.907Z,70.20
2022-08-04T03:14:51.970Z,71.10
2022-08-04T03:18:05.794Z,72.00
2022-08-04T03:21:00.179Z,72.50
2022-08-04T03:23:35.962Z,73.60
2022-08-04T03:26:19.403Z,74.20
2022-08-04T03:29:36.112Z,74.60
2022-08-04T03:32:23.983Z,75.10
2022-08-04T03:35:22.523Z,74.60
2022-08-04T03:38:14.671Z,74.30
2022-08-04T03:41:06.446Z,73.40
2022-08-04T03:43:57.482Z,72.70
2022-08-04T03:47:00.769Z,72.50
2022-08-04T03:49:49.099Z,72.40
2022-08-04T03:53:11.584Z,72.20
2022-08-04T03:56:00.215Z,72.10
2022-08-04T03:59:04.372Z,72.70
2022-08-04T04:02:02.719Z,72.10
2022-08-04T04:05:15.166Z,72.10
2022-08-04T04:08:16.450Z,71.90
2022-08-04T04:11:07.451Z,71.80
2022-08-04T04:14:03.408Z,71.70
2022-08-04T04:16:43.704Z,71.40
2022-08-04T04:19:35.326Z,71.30
2022-08-04T04:22:22.255Z,71.00
2022-08-04T04:25:19.148Z,70.70
2022-08-04T04:28:44.216Z,70.40
2022-08-04T04:31:19.216Z,69.60
2022-08-04T04:34:02.338Z,68.80
2022-08-04T04:36:44.331Z,68.40
2022-08-04T04:39:43.607Z,68.00
2022-08-04T04:42:32.174Z,67.10
2022-08-04T04:45:04.438Z,67.00
2022-08-04T04:48:09.201Z,66.30
2022-08-04T04:50:55.718Z,66.40
2022-08-04T04:53:47.556Z,65.20
2022-08-04T04:56:40.877Z,64.90
2022-08-04T04:59:12.948Z,64.60
2022-08-04T05:01:53.528Z,64.70
2022-08-04T05:04:31.974Z,64.10
2022-08-04T05:07:28.771Z,63.60
2022-08-04T05:10:07.953Z,62.90
2022-08-04T05:14:35.580Z,63.00
2022-08-04T05:15:48.762Z,62.40
2022-08-04T05:18:22.539Z,62.20
2022-08-04T05:20:57.296Z,61.90
2022-08-04T05:23:28.829Z,61.90
2022-08-04T05:26:09.208Z,61.80
2022-08-04T05:28:48.488Z,61.70
2022-08-04T05:31:26.929Z,62.20
2022-08-04T05:33:57.666Z,62.20
2022-08-04T05:36:49.539Z,62.00
2022-08-04T05:39:21.747Z,61.70
2022-08-04T05:41:55.585Z,61.40
2022-08-04T05:44:27.398Z,61.10
2022-08-04T05:46:58.640Z,60.60
2022-08-04T05:49:28.232Z,60.50
2022-08-04T05:51:59.538Z,60.10
2022-08-04T05:54:27.849Z,59.80
2022-08-04T05:56:57.028Z,59.20
2022-08-04T05:59:28.077Z,58.50
2022-08-04T06:01:59.193Z,57.70
2022-08-04T06:04:39.501Z,57.10
2022-08-04T06:07:07.803Z,56.00
2022-08-04T06:09:34.887Z,55.30
2022-08-04T06:12:06.708Z,54.60
2022-08-04T06:14:38.582Z,54.30
2022-08-04T06:17:27.133Z,54.40
2022-08-04T06:20:17.911Z,53.80
2022-08-04T06:22:47.126Z,53.40
2022-08-04T06:25:20.548Z,52.20
2022-08-04T06:27:50.323Z,50.70
2022-08-04T06:30:19.403Z,50.80
2022-08-04T06:32:48.825Z,50.40
2022-08-04T06:35:19.877Z,49.50
2022-08-04T06:37:47.729Z,49.00
2022-08-04T06:40:30.714Z,48.90
2022-08-04T06:43:03.539Z,48.70
2022-08-04T06:45:31.973Z,48.40
2022-08-04T06:48:00.838Z,48.30
2022-08-04T06:51:26.464Z,48.10
2022-08-04T06:53:16.024Z,46.20
2022-08-04T06:55:46.048Z,44.40
2022-08-04T06:58:13.537Z,43.70
2022-08-04T07:00:43.307Z,43.70
2022-08-04T07:03:11.483Z,43.60
2022-08-04T07:05:40.146Z,43.40
2022-08-04T07:08:08.068Z,43.50
2022-08-04T07:10:35.889Z,43.30
2022-08-04T07:13:03.531Z,43.20
2022-08-04T07:15:31.411Z,43.00
2022-08-04T07:18:00.251Z,43.40
2022-08-04T07:20:33.812Z,43.40
2022-08-04T07:23:04.518Z,43.70
2022-08-04T07:25:58.567Z,43.80
2022-08-04T07:28:19.559Z,43.40
2022-08-04T07:30:48.345Z,43.60
2022-08-04T07:33:18.859Z,42.80
2022-08-04T07:36:05.150Z,42.60
2022-08-04T07:38:37.497Z,42.70
2022-08-04T07:41:35.421Z,42.80
2022-08-04T07:43:54.906Z,42.50
2022-08-04T07:46:21.952Z,42.10
2022-08-04T07:48:49.107Z,42.20
2022-08-04T07:51:16.932Z,42.40
2022-08-04T07:53:54.465Z,42.50
2022-08-04T07:56:23.351Z,42.10
2022-08-04T07:58:50.606Z,42.40
2022-08-04T08:01:19.115Z,42.60
2022-08-04T08:03:46.422Z,42.20
2022-08-04T08:06:17.756Z,42.10
2022-08-04T08:09:12.425Z,42.20
2022-08-04T08:12:37.544Z,42.20
2022-08-04T08:14:36.428Z,42.10
2022-08-04T08:17:04.560Z,41.90
2022-08-04T08:19:32.487Z,41.70
2022-08-04T08:22:01.258Z,41.20
2022-08-04T08:24:30.299Z,40.50
2022-08-04T08:26:57.547Z,40.60
2022-08-04T08:29:25.778Z,40.30
2022-08-04T08:31:58.388Z,40.10
2022-08-04T08:34:29.247Z,40.00
2022-08-04T08:37:03.791Z,39.70
2022-08-04T08:39:42.497Z,39.00
2022-08-04T08:42:28.555Z,38.50
2022-08-04T08:45:17.798Z,39.30
2022-08-04T08:48:36.853Z,39.10
2022-08-04T08:51:39.999Z,39.10
2022-08-04T08:54:40.314Z,39.10
2022-08-04T08:57:19.194Z,38.70
2022-08-04T08:59:49.313Z,38.90
2022-08-04T09:03:04.260Z,38.30
2022-08-04T09:05:42.973Z,37.90
2022-08-04T09:08:49.691Z,37.70
2022-08-04T09:11:20.964Z,37.70
2022-08-04T09:13:55.124Z,37.50
2022-08-04T09:16:42.641Z,37.90
2022-08-04T09:19:38.668Z,37.10
2022-08-04T09:22:18.552Z,37.90
2022-08-04T09:24:59.355Z,37.80
2022-08-04T09:27:33.458Z,37.50
2022-08-04T09:30:11.591Z,37.00
2022-08-04T09:33:10.688Z,36.80
2022-08-04T09:35:48.964Z,37.30
2022-08-04T09:38:20.726Z,37.00
2022-08-04T09:41:20.517Z,37.00
2022-08-04T09:43:59.218Z,36.90
2022-08-04T09:46:45.915Z,37.30
2022-08-04T09:49:21.442Z,37.50
2022-08-04T09:51:57.560Z,38.40
2022-08-04T09:54:58.474Z,37.20
2022-08-04T09:57:31.399Z,37.70
2022-08-04T10:00:07.232Z,37.60
2022-08-04T10:02:44.186Z,38.00
2022-08-04T10:05:22.338Z,37.90
2022-08-04T10:08:16.841Z,37.30
2022-08-04T10:11:14.956Z,37.20
2022-08-04T10:13:52.132Z,37.20
2022-08-04T10:16:58.680Z,36.70
2022-08-04T10:19:37.538Z,36.80
2022-08-04T10:22:30.751Z,36.90
2022-08-04T10:25:04.071Z,37.80
2022-08-04T10:27:38.270Z,37.40
2022-08-04T10:30:12.096Z,36.80
2022-08-04T10:33:07.059Z,36.50
2022-08-04T10:35:40.564Z,36.20
2022-08-04T10:38:27.122Z,36.40
2022-08-04T10:41:17.974Z,35.60
2022-08-04T10:43:55.697Z,35.80
2022-08-04T10:46:36.072Z,36.00
2022-08-04T10:49:04.822Z,35.30
2022-08-04T10:51:58.672Z,35.30
2022-08-04T10:54:57.157Z,35.70
2022-08-04T10:57:33.088Z,35.60
2022-08-04T11:00:04.734Z,35.90
2022-08-04T11:02:43.180Z,35.70
2022-08-04T11:05:18.046Z,35.40
2022-08-04T11:07:50.375Z,35.60
2022-08-04T11:10:21.839Z,35.60
2022-08-04T11:12:53.813Z,35.20
2022-08-04T11:15:36.650Z,35.30
2022-08-04T11:18:16.296Z,34.90
2022-08-04T11:20:52.267Z,34.60
2022-08-04T11:23:24.225Z,34.90
2022-08-04T11:26:12.908Z,35.20
2022-08-04T11:29:04.642Z,34.80
2022-08-04T11:31:44.208Z,34.90
2022-08-04T11:34:29.175Z,34.70
2022-08-04T11:37:14.121Z,34.60
2022-08-04T11:40:04.026Z,34.30
2022-08-04T11:42:36.381Z,34.50
2022-08-04T11:45:16.032Z,34.80
2022-08-04T11:47:48.703Z,34.70
2022-08-04T11:50:22.322Z,34.00
2022-08-04T11:52:53.781Z,33.90
2022-08-04T11:55:22.932Z,33.90
2022-08-04T11:57:54.409Z,34.00
2022-08-04T12:00:25.319Z,33.80
2022-08-04T12:03:59.751Z,34.40
2022-08-04T12:06:38.920Z,34.50
2022-08-04T12:09:20.333Z,35.10
2022-08-04T12:11:47.015Z,35.50
2022-08-04T12:14:43.216Z,35.50
2022-08-04T12:17:11.808Z,35.50
2022-08-04T12:20:05.273Z,35.30
2022-08-04T12:22:44.320Z,35.30
2022-08-04T12:25:18.079Z,34.80
2022-08-04T12:27:51.004Z,35.30
2022-08-04T12:30:59.071Z,35.70
2022-08-04T12:33:41.379Z,35.40
2022-08-04T12:36:43.322Z,35.80
2022-08-04T12:39:18.718Z,35.60
2022-08-04T12:41:48.411Z,35.60
2022-08-04T12:44:33.325Z,35.30
2022-08-04T12:47:36.198Z,34.90
2022-08-04T12:50:00.313Z,35.00
2022-08-04T12:55:18.047Z,34.50
2022-08-04T12:57:46.832Z,34.80
2022-08-04T13:00:31.208Z,34.80
2022-08-04T13:03:09.724Z,35.00
2022-08-04T13:05:39.736Z,34.80
2022-08-04T13:08:08.464Z,35.00
2022-08-04T13:10:40.191Z,34.70
2022-08-04T13:13:17.224Z,34.70
2022-08-04T13:15:56.510Z,35.20
2022-08-04T13:18:29.272Z,35.70
2022-08-04T13:21:19.510Z,35.80
2022-08-04T13:24:10.002Z,36.50
2022-08-04T13:26:55.311Z,36.90
2022-08-04T13:29:57.827Z,37.70
2022-08-04T13:32:17.365Z,37.80
2022-08-04T13:34:49.583Z,38.30
2022-08-04T13:37:25.014Z,38.40
2022-08-04T13:39:56.005Z,38.00
2022-08-04T13:42:25.922Z,38.30
2022-08-04T13:45:00.167Z,37.50
2022-08-04T13:47:37.902Z,37.60
2022-08-04T13:50:22.561Z,36.90
2022-08-04T13:52:53.716Z,36.40
2022-08-04T13:55:34.342Z,36.40
2022-08-04T13:58:09.850Z,37.00
2022-08-04T14:00:53.992Z,37.00
2022-08-04T14:03:29.053Z,37.20
2022-08-04T14:06:16.450Z,36.50
2022-08-04T14:08:54.501Z,36.90
2022-08-04T14:12:10.017Z,37.00
2022-08-04T14:14:30.366Z,37.30
2022-08-04T14:17:00.169Z,36.90
2022-08-04T14:19:55.295Z,36.80
2022-08-04T14:22:28.091Z,36.90
2022-08-04T14:24:59.250Z,37.20
2022-08-04T14:27:29.335Z,37.60
2022-08-04T14:29:56.311Z,37.90
2022-08-04T14:32:26.289Z,38.30
2022-08-04T14:34:53.374Z,38.40
2022-08-04T14:37:22.484Z,38.90
2022-08-04T14:40:18.507Z,38.70
2022-08-04T14:42:55.800Z,38.90
2022-08-04T14:45:30.554Z,39.20
2022-08-04T14:47:57.780Z,39.40
2022-08-04T14:50:54.595Z,39.50
2022-08-04T14:53:26.241Z,40.50
2022-08-04T14:55:56.520Z,40.30
2022-08-04T14:58:36.399Z,39.20
2022-08-04T15:01:12.005Z,38.80
2022-08-04T15:03:52.585Z,38.70
2022-08-04T15:06:28.096Z,38.60
2022-08-04T15:08:57.576Z,38.20
2022-08-04T15:11:25.326Z,38.10
2022-08-04T15:13:53.157Z,38.30
2022-08-04T15:16:21.732Z,38.00
2022-08-04T15:18:49.520Z,38.40
2022-08-04T15:21:17.402Z,38.30
2022-08-04T15:23:44.402Z,38.40
2022-08-04T15:26:15.464Z,38.20
2022-08-04T15:28:48.664Z,37.90
2022-08-04T15:32:06.829Z,38.10
2022-08-04T15:34:05.897Z,38.10
2022-08-04T15:36:43.894Z,38.10
2022-08-04T15:39:37.014Z,38.40
2022-08-04T15:42:23.364Z,38.40
2022-08-04T15:45:03.399Z,38.70
2022-08-04T15:47:30.291Z,38.90
2022-08-04T15:50:14.262Z,38.60
2022-08-04T15:52:57.197Z,38.70
2022-08-04T15:55:38.756Z,38.80
2022-08-04T15:58:07.622Z,39.10
2022-08-04T16:00:56.722Z,38.60
2022-08-04T16:03:55.320Z,39.00
2022-08-04T16:06:22.822Z,38.70
2022-08-04T16:08:51.958Z,39.20
2022-08-04T16:11:31.628Z,39.20
2022-08-04T16:13:58.956Z,39.20
2022-08-04T16:16:32.935Z,39.30
2022-08-04T16:19:13.466Z,39.40
2022-08-04T16:21:54.210Z,39.50
2022-08-04T16:24:34.140Z,39.10
2022-08-04T16:27:02.962Z,39.40
2022-08-04T16:29:33.755Z,39.70
2022-08-04T16:32:10.935Z,40.30
2022-08-04T16:34:50.283Z,40.20
2022-08-04T16:37:21.670Z,40.20
2022-08-04T16:39:51.163Z,40.30
2022-08-04T16:42:33.891Z,40.70
2022-08-04T16:45:07.395Z,40.50
2022-08-04T16:47:49.498Z,40.50
2022-08-04T16:50:18.256Z,41.90
2022-08-04T16:52:47.331Z,41.30
2022-08-04T16:55:32.715Z,41.30
2022-08-04T16:57:59.589Z,41.60
2022-08-04T17:00:37.444Z,41.80
2022-08-04T17:03:05.598Z,42.40
2022-08-04T17:05:38.608Z,42.70
2022-08-04T17:08:29.246Z,43.20
2022-08-04T17:10:55.291Z,43.40
2022-08-04T17:14:02.600Z,43.70
2022-08-04T17:16:20.866Z,43.80
2022-08-04T17:18:49.653Z,44.40
2022-08-04T17:21:22.555Z,44.60
2022-08-04T17:24:15.528Z,44.50
2022-08-04T17:26:51.592Z,44.40
2022-08-04T17:29:20.343Z,44.40
2022-08-04T17:31:47.945Z,44.30
2022-08-04T17:34:19.269Z,44.40
2022-08-04T17:36:48.046Z,44.10
2022-08-04T17:39:21.702Z,44.40
2022-08-04T17:41:55.010Z,44.80
2022-08-04T17:44:34.236Z,45.20
2022-08-04T17:47:18.295Z,44.70
2022-08-04T17:49:53.354Z,44.50
2022-08-04T17:52:39.671Z,44.10
2022-08-04T17:55:16.247Z,43.70
2022-08-04T17:57:52.123Z,43.60
2022-08-04T18:00:20.117Z,43.60
2022-08-04T18:02:54.638Z,43.80
2022-08-04T18:05:50.301Z,44.40
2022-08-04T18:11:04.191Z,45.70
2022-08-04T18:13:42.587Z,46.30
2022-08-04T18:16:22.669Z,46.60
2022-08-04T18:19:14.416Z,46.80
2022-08-04T18:21:46.025Z,47.40
2022-08-04T18:24:34.788Z,47.10
2022-08-04T18:27:06.450Z,47.40
2022-08-04T18:29:39.355Z,47.30
2022-08-04T18:32:09.031Z,47.60
2022-08-04T18:34:40.747Z,48.10
2022-08-04T18:38:03.594Z,48.60
2022-08-04T18:40:30.002Z,49.10
2022-08-04T18:42:57.376Z,48.90
2022-08-04T18:45:34.071Z,49.20
2022-08-04T18:51:09.585Z,49.90
2022-08-04T18:53:37.085Z,50.10
2022-08-04T18:56:06.115Z,50.20
2022-08-04T18:58:43.232Z,50.60
2022-08-04T19:01:14.024Z,50.80
2022-08-04T19:03:44.722Z,50.20
2022-08-04T19:06:15.892Z,50.30
2022-08-04T19:08:45.268Z,49.80
2022-08-04T19:11:36.908Z,49.90
2022-08-04T19:14:02.013Z,50.30
2022-08-04T19:16:30.011Z,50.10
2022-08-04T19:19:01.805Z,50.90
2022-08-04T19:22:01.298Z,50.90
2022-08-04T19:24:31.997Z,50.70
2022-08-04T19:27:06.914Z,52.00
2022-08-04T19:29:37.563Z,51.80
2022-08-04T19:32:14.162Z,52.30
2022-08-04T19:34:46.452Z,52.50
2022-08-04T19:37:57.658Z,52.90
2022-08-04T19:40:10.326Z,53.70
2022-08-04T19:42:37.917Z,54.60
2022-08-04T19:45:05.412Z,55.30
2022-08-04T19:48:16.012Z,56.70
2022-08-04T19:50:19.805Z,56.40
2022-08-04T19:52:52.021Z,56.40
2022-08-04T19:55:36.844Z,56.40
2022-08-04T19:58:07.393Z,55.70
2022-08-04T20:00:37.199Z,55.20
2022-08-04T20:03:11.311Z,54.80
2022-08-04T20:05:55.358Z,54.70
2022-08-04T20:08:31.728Z,54.70
2022-08-04T20:11:00.099Z,54.90
2022-08-04T20:13:37.013Z,54.70
2022-08-04T20:16:05.810Z,54.80
2022-08-04T20:18:54.933Z,54.80
2022-08-04T20:21:36.672Z,54.60
2022-08-04T20:26:59.853Z,54.30
2022-08-04T20:29:40.444Z,54.40
2022-08-04T20:32:09.840Z,54.40
2022-08-04T20:34:37.550Z,54.60
2022-08-04T20:37:06.991Z,54.60
2022-08-04T20:39:37.651Z,54.80
2022-08-04T20:42:04.620Z,55.80
2022-08-04T20:44:31.371Z,58.10
2022-08-04T20:46:58.162Z,58.30
2022-08-04T20:49:35.112Z,58.40
2022-08-04T20:52:13.344Z,58.30
2022-08-04T20:54:42.579Z,59.10
2022-08-04T20:57:16.670Z,59.50
2022-08-04T20:59:44.119Z,59.80
2022-08-04T21:02:26.666Z,60.00
2022-08-04T21:04:53.714Z,60.00
2022-08-04T21:07:21.679Z,60.30
2022-08-04T21:09:50.517Z,60.50
2022-08-04T21:12:28.393Z,61.10
2022-08-04T21:15:13.166Z,61.00
2022-08-04T21:17:58.589Z,61.10
2022-08-04T21:20:28.829Z,61.20
2022-08-04T21:22:59.656Z,61.20
2022-08-04T21:25:28.677Z,61.30
2022-08-04T21:27:58.712Z,61.50
2022-08-04T21:30:26.765Z,61.80
2022-08-04T21:32:55.069Z,62.00
2022-08-04T21:35:30.839Z,62.30
2022-08-04T21:38:17.328Z,62.50
2022-08-04T21:40:55.993Z,62.80
2022-08-04T21:43:27.474Z,63.10
2022-08-04T21:45:56.961Z,63.20
2022-08-04T21:48:31.919Z,63.20
2022-08-04T21:51:12.913Z,63.40
2022-08-04T21:53:59.767Z,64.50
2022-08-04T21:56:26.817Z,64.10
2022-08-04T21:58:57.972Z,64.30
2022-08-04T22:01:51.937Z,64.50
2022-08-04T22:04:12.914Z,64.60
2022-08-04T22:06:39.691Z,64.70
2022-08-04T22:09:14.530Z,64.80
2022-08-04T22:14:34.773Z,65.20
2022-08-04T22:17:02.660Z,65.30
2022-08-04T22:19:50.086Z,65.70
2022-08-04T22:28:00.958Z,66.40
2022-08-04T22:30:36.562Z,66.70
2022-08-04T22:33:07.386Z,67.00
2022-08-04T22:35:48.714Z,67.10
2022-08-04T22:38:21.255Z,67.20
2022-08-04T22:41:08.469Z,67.30
2022-08-04T22:43:37.605Z,67.70
2022-08-04T22:46:22.307Z,67.70
2022-08-04T22:48:49.218Z,67.70
2022-08-04T22:51:16.685Z,68.10
2022-08-04T22:53:49.162Z,68.60
2022-08-04T22:56:21.510Z,68.60
2022-08-04T22:59:03.782Z,69.40
2022-08-04T23:01:57.863Z,69.60
2022-08-04T23:04:17.645Z,70.00
2022-08-04T23:06:44.529Z,69.90
2022-08-04T23:09:16.110Z,70.40
2022-08-04T23:11:43.748Z,70.40
2022-08-04T23:14:10.671Z,70.30
2022-08-04T23:16:40.369Z,70.60
2022-08-04T23:19:12.095Z,70.90
2022-08-04T23:21:47.322Z,70.80
2022-08-04T23:24:14.854Z,71.40
2022-08-04T23:26:41.673Z,71.00
2022-08-04T23:29:08.544Z,71.00
2022-08-04T23:31:41.080Z,71.10
2022-08-04T23:34:22.112Z,71.30
2022-08-04T23:36:49.971Z,71.20
2022-08-04T23:39:16.825Z,71.40
2022-08-04T23:41:53.815Z,71.40
2022-08-04T23:44:24.739Z,71.40
2022-08-04T23:47:03.567Z,71.30
2022-08-04T23:49:43.457Z,71.40
2022-08-04T23:52:23.105Z,71.30
2022-08-04T23:54:58.498Z,71.30
2022-08-04T23:58:02.058Z,71.30
